sensor_id;sensor_type;location;lat;lon;timestamp;P1;durP1;ratioP1;P2;durP2;ratioP2
49488;SDS011;35382;51.484;11.476;2023-03-14T00:00:24;1.77;;;0.50;;
49488;SDS011;35382;51.484;11.476;2023-03-14T00:02:05;1.10;;;0.63;;
49488;SDS011;35382;51.484;11.476;2023-03-14T00:03:46;1.48;;;0.55;;
49488;SDS011;35382;51.484;11.476;2023-03-14T00:05:27;1.02;;;0.57;;
49488;SDS011;35382;51.484;11.476;2023-03-14T00:07:10;1.58;;;0.80;;
49488;SDS011;35382;51.484;11.476;2023-03-14T00:08:51;1.60;;;0.80;;
49488;SDS011;35382;51.484;11.476;2023-03-14T00:10:32;1.83;;;0.70;;
49488;SDS011;35382;51.484;11.476;2023-03-14T00:12:15;3.53;;;0.93;;
49488;SDS011;35382;51.484;11.476;2023-03-14T00:13:57;1.20;;;0.70;;
49488;SDS011;35382;51.484;11.476;2023-03-14T00:15:38;1.83;;;0.70;;
49488;SDS011;35382;51.484;11.476;2023-03-14T00:17:19;1.25;;;0.70;;
49488;SDS011;35382;51.484;11.476;2023-03-14T00:19:00;2.25;;;1.02;;
49488;SDS011;35382;51.484;11.476;2023-03-14T00:20:41;1.70;;;0.60;;
49488;SDS011;35382;51.484;11.476;2023-03-14T00:22:22;1.77;;;0.80;;
49488;SDS011;35382;51.484;11.476;2023-03-14T00:24:03;1.80;;;0.80;;
49488;SDS011;35382;51.484;11.476;2023-03-14T00:25:45;1.55;;;0.93;;
49488;SDS011;35382;51.484;11.476;2023-03-14T00:27:26;1.58;;;0.73;;
49488;SDS011;35382;51.484;11.476;2023-03-14T00:29:07;2.55;;;1.00;;
49488;SDS011;35382;51.484;11.476;2023-03-14T00:30:48;2.15;;;0.77;;
49488;SDS011;35382;51.484;11.476;2023-03-14T00:32:29;3.00;;;0.88;;
49488;SDS011;35382;51.484;11.476;2023-03-14T00:34:10;1.50;;;0.73;;
49488;SDS011;35382;51.484;11.476;2023-03-14T00:35:57;1.80;;;0.90;;
49488;SDS011;35382;51.484;11.476;2023-03-14T00:37:39;1.40;;;0.80;;
49488;SDS011;35382;51.484;11.476;2023-03-14T00:39:20;1.65;;;0.77;;
49488;SDS011;35382;51.484;11.476;2023-03-14T00:41:05;2.60;;;1.00;;
49488;SDS011;35382;51.484;11.476;2023-03-14T00:42:48;1.67;;;0.77;;
49488;SDS011;35382;51.484;11.476;2023-03-14T00:44:29;2.53;;;1.10;;
49488;SDS011;35382;51.484;11.476;2023-03-14T00:46:10;2.75;;;1.13;;
49488;SDS011;35382;51.484;11.476;2023-03-14T00:47:52;1.67;;;1.00;;
49488;SDS011;35382;51.484;11.476;2023-03-14T00:49:32;2.30;;;1.15;;
49488;SDS011;35382;51.484;11.476;2023-03-14T00:51:16;2.53;;;1.00;;
49488;SDS011;35382;51.484;11.476;2023-03-14T00:52:58;2.55;;;0.82;;
49488;SDS011;35382;51.484;11.476;2023-03-14T00:54:39;1.88;;;0.82;;
49488;SDS011;35382;51.484;11.476;2023-03-14T00:56:20;2.05;;;0.98;;
49488;SDS011;35382;51.484;11.476;2023-03-14T00:58:01;2.58;;;1.05;;
49488;SDS011;35382;51.484;11.476;2023-03-14T00:59:42;1.45;;;0.80;;
49488;SDS011;35382;51.484;11.476;2023-03-14T01:01:23;1.92;;;0.95;;
49488;SDS011;35382;51.484;11.476;2023-03-14T01:03:07;0.98;;;0.80;;
49488;SDS011;35382;51.484;11.476;2023-03-14T01:04:49;2.10;;;0.90;;
49488;SDS011;35382;51.484;11.476;2023-03-14T01:06:30;1.77;;;0.70;;
49488;SDS011;35382;51.484;11.476;2023-03-14T01:08:11;1.13;;;0.80;;
49488;SDS011;35382;51.484;11.476;2023-03-14T01:09:52;0.90;;;0.73;;
49488;SDS011;35382;51.484;11.476;2023-03-14T01:11:34;1.77;;;0.80;;
49488;SDS011;35382;51.484;11.476;2023-03-14T01:13:15;1.85;;;0.98;;
49488;SDS011;35382;51.484;11.476;2023-03-14T01:14:56;2.60;;;0.80;;
49488;SDS011;35382;51.484;11.476;2023-03-14T01:16:38;1.85;;;0.90;;
49488;SDS011;35382;51.484;11.476;2023-03-14T01:18:19;2.70;;;1.17;;
49488;SDS011;35382;51.484;11.476;2023-03-14T01:20:00;1.80;;;0.95;;
49488;SDS011;35382;51.484;11.476;2023-03-14T01:21:41;2.10;;;1.10;;
49488;SDS011;35382;51.484;11.476;2023-03-14T01:23:22;2.35;;;0.93;;
49488;SDS011;35382;51.484;11.476;2023-03-14T01:25:04;2.38;;;1.00;;
49488;SDS011;35382;51.484;11.476;2023-03-14T01:26:45;1.95;;;0.90;;
49488;SDS011;35382;51.484;11.476;2023-03-14T01:28:26;3.70;;;1.00;;
49488;SDS011;35382;51.484;11.476;2023-03-14T01:30:08;1.77;;;0.90;;
49488;SDS011;35382;51.484;11.476;2023-03-14T01:31:50;2.78;;;1.00;;
49488;SDS011;35382;51.484;11.476;2023-03-14T01:33:31;3.10;;;1.13;;
49488;SDS011;35382;51.484;11.476;2023-03-14T01:35:12;2.03;;;1.23;;
49488;SDS011;35382;51.484;11.476;2023-03-14T01:36:53;2.47;;;0.88;;
49488;SDS011;35382;51.484;11.476;2023-03-14T01:38:34;2.13;;;0.90;;
49488;SDS011;35382;51.484;11.476;2023-03-14T01:40:17;2.13;;;1.10;;
49488;SDS011;35382;51.484;11.476;2023-03-14T01:41:59;2.20;;;1.10;;
49488;SDS011;35382;51.484;11.476;2023-03-14T01:43:41;1.90;;;1.10;;
49488;SDS011;35382;51.484;11.476;2023-03-14T01:47:41;1.95;;;1.10;;
49488;SDS011;35382;51.484;11.476;2023-03-14T01:51:27;2.92;;;1.10;;
49488;SDS011;35382;51.484;11.476;2023-03-14T01:53:23;2.05;;;1.20;;
49488;SDS011;35382;51.484;11.476;2023-03-14T01:55:15;1.88;;;1.00;;
49488;SDS011;35382;51.484;11.476;2023-03-14T01:57:19;2.30;;;1.10;;
49488;SDS011;35382;51.484;11.476;2023-03-14T01:59:13;3.33;;;1.33;;
49488;SDS011;35382;51.484;11.476;2023-03-14T02:00:55;1.80;;;1.00;;
49488;SDS011;35382;51.484;11.476;2023-03-14T02:02:40;2.00;;;1.00;;
49488;SDS011;35382;51.484;11.476;2023-03-14T02:04:25;2.25;;;1.25;;
49488;SDS011;35382;51.484;11.476;2023-03-14T02:06:09;2.40;;;1.15;;
49488;SDS011;35382;51.484;11.476;2023-03-14T02:07:56;2.83;;;1.00;;
49488;SDS011;35382;51.484;11.476;2023-03-14T02:09:46;1.85;;;0.90;;
49488;SDS011;35382;51.484;11.476;2023-03-14T02:11:35;2.53;;;1.23;;
49488;SDS011;35382;51.484;11.476;2023-03-14T02:13:36;2.72;;;1.00;;
49488;SDS011;35382;51.484;11.476;2023-03-14T02:15:38;1.73;;;1.10;;
49488;SDS011;35382;51.484;11.476;2023-03-14T02:17:26;2.20;;;1.13;;
49488;SDS011;35382;51.484;11.476;2023-03-14T02:21:57;2.03;;;1.00;;
49488;SDS011;35382;51.484;11.476;2023-03-14T02:26:10;2.15;;;1.00;;
49488;SDS011;35382;51.484;11.476;2023-03-14T02:27:54;3.22;;;1.40;;
49488;SDS011;35382;51.484;11.476;2023-03-14T02:29:36;3.03;;;1.08;;
49488;SDS011;35382;51.484;11.476;2023-03-14T02:31:21;5.32;;;1.10;;
49488;SDS011;35382;51.484;11.476;2023-03-14T02:33:05;2.17;;;1.08;;
49488;SDS011;35382;51.484;11.476;2023-03-14T02:34:50;3.00;;;1.20;;
49488;SDS011;35382;51.484;11.476;2023-03-14T02:36:35;2.08;;;1.02;;
49488;SDS011;35382;51.484;11.476;2023-03-14T02:38:23;1.58;;;0.95;;
49488;SDS011;35382;51.484;11.476;2023-03-14T02:40:08;3.50;;;1.13;;
49488;SDS011;35382;51.484;11.476;2023-03-14T02:41:50;1.88;;;1.10;;
49488;SDS011;35382;51.484;11.476;2023-03-14T02:43:31;1.85;;;1.20;;
49488;SDS011;35382;51.484;11.476;2023-03-14T02:46:58;3.22;;;1.30;;
49488;SDS011;35382;51.484;11.476;2023-03-14T02:48:40;2.97;;;1.10;;
49488;SDS011;35382;51.484;11.476;2023-03-14T02:50:26;3.15;;;1.00;;
49488;SDS011;35382;51.484;11.476;2023-03-14T02:52:11;3.42;;;1.27;;
49488;SDS011;35382;51.484;11.476;2023-03-14T02:53:52;3.45;;;1.02;;
49488;SDS011;35382;51.484;11.476;2023-03-14T02:55:34;3.13;;;1.10;;
49488;SDS011;35382;51.484;11.476;2023-03-14T02:57:21;4.72;;;1.38;;
49488;SDS011;35382;51.484;11.476;2023-03-14T02:59:05;3.50;;;1.23;;
49488;SDS011;35382;51.484;11.476;2023-03-14T03:00:52;2.55;;;1.42;;
49488;SDS011;35382;51.484;11.476;2023-03-14T03:02:34;4.50;;;1.35;;
49488;SDS011;35382;51.484;11.476;2023-03-14T03:04:15;2.30;;;1.13;;
49488;SDS011;35382;51.484;11.476;2023-03-14T03:05:56;2.83;;;1.17;;
49488;SDS011;35382;51.484;11.476;2023-03-14T03:07:37;4.22;;;1.42;;
49488;SDS011;35382;51.484;11.476;2023-03-14T03:09:19;3.75;;;1.60;;
49488;SDS011;35382;51.484;11.476;2023-03-14T03:11:00;3.65;;;1.50;;
49488;SDS011;35382;51.484;11.476;2023-03-14T03:12:43;3.30;;;1.30;;
49488;SDS011;35382;51.484;11.476;2023-03-14T03:14:25;3.53;;;1.20;;
49488;SDS011;35382;51.484;11.476;2023-03-14T03:16:06;4.25;;;1.50;;
49488;SDS011;35382;51.484;11.476;2023-03-14T03:17:49;4.25;;;1.40;;
49488;SDS011;35382;51.484;11.476;2023-03-14T03:19:30;5.15;;;1.40;;
49488;SDS011;35382;51.484;11.476;2023-03-14T03:21:11;2.83;;;1.23;;
49488;SDS011;35382;51.484;11.476;2023-03-14T03:22:52;3.33;;;1.25;;
49488;SDS011;35382;51.484;11.476;2023-03-14T03:24:33;4.28;;;1.30;;
49488;SDS011;35382;51.484;11.476;2023-03-14T03:26:16;3.42;;;1.65;;
49488;SDS011;35382;51.484;11.476;2023-03-14T03:27:57;3.65;;;1.20;;
49488;SDS011;35382;51.484;11.476;2023-03-14T03:29:38;2.17;;;1.20;;
49488;SDS011;35382;51.484;11.476;2023-03-14T03:31:19;2.85;;;1.45;;
49488;SDS011;35382;51.484;11.476;2023-03-14T03:33:01;3.67;;;1.30;;
49488;SDS011;35382;51.484;11.476;2023-03-14T03:34:42;4.50;;;1.10;;
49488;SDS011;35382;51.484;11.476;2023-03-14T03:36:24;5.55;;;1.40;;
49488;SDS011;35382;51.484;11.476;2023-03-14T03:38:06;4.18;;;1.23;;
49488;SDS011;35382;51.484;11.476;2023-03-14T03:39:51;3.60;;;1.27;;
49488;SDS011;35382;51.484;11.476;2023-03-14T03:41:32;4.32;;;1.50;;
49488;SDS011;35382;51.484;11.476;2023-03-14T03:43:14;4.43;;;1.65;;
49488;SDS011;35382;51.484;11.476;2023-03-14T03:44:58;5.18;;;1.35;;
49488;SDS011;35382;51.484;11.476;2023-03-14T03:46:40;2.53;;;1.27;;
49488;SDS011;35382;51.484;11.476;2023-03-14T03:48:22;5.55;;;1.58;;
49488;SDS011;35382;51.484;11.476;2023-03-14T03:50:03;7.35;;;1.25;;
49488;SDS011;35382;51.484;11.476;2023-03-14T03:51:44;4.03;;;1.40;;
49488;SDS011;35382;51.484;11.476;2023-03-14T03:53:25;5.28;;;1.50;;
49488;SDS011;35382;51.484;11.476;2023-03-14T03:55:08;5.85;;;1.50;;
49488;SDS011;35382;51.484;11.476;2023-03-14T03:56:49;5.95;;;1.50;;
49488;SDS011;35382;51.484;11.476;2023-03-14T03:58:33;3.83;;;1.30;;
49488;SDS011;35382;51.484;11.476;2023-03-14T04:00:14;4.18;;;1.42;;
49488;SDS011;35382;51.484;11.476;2023-03-14T04:01:55;5.47;;;1.40;;
49488;SDS011;35382;51.484;11.476;2023-03-14T04:03:36;3.70;;;1.20;;
49488;SDS011;35382;51.484;11.476;2023-03-14T04:05:19;3.88;;;1.45;;
49488;SDS011;35382;51.484;11.476;2023-03-14T04:07:06;6.13;;;1.30;;
49488;SDS011;35382;51.484;11.476;2023-03-14T04:08:48;5.82;;;1.50;;
49488;SDS011;35382;51.484;11.476;2023-03-14T04:10:58;3.15;;;1.23;;
49488;SDS011;35382;51.484;11.476;2023-03-14T04:13:00;5.40;;;1.30;;
49488;SDS011;35382;51.484;11.476;2023-03-14T04:14:44;7.60;;;1.42;;
49488;SDS011;35382;51.484;11.476;2023-03-14T04:16:30;4.25;;;1.30;;
49488;SDS011;35382;51.484;11.476;2023-03-14T04:18:26;5.22;;;1.48;;
49488;SDS011;35382;51.484;11.476;2023-03-14T04:20:08;4.65;;;1.50;;
49488;SDS011;35382;51.484;11.476;2023-03-14T04:21:54;5.47;;;2.05;;
49488;SDS011;35382;51.484;11.476;2023-03-14T04:23:36;7.35;;;1.33;;
49488;SDS011;35382;51.484;11.476;2023-03-14T04:25:19;6.85;;;1.65;;
49488;SDS011;35382;51.484;11.476;2023-03-14T04:27:05;3.63;;;1.30;;
49488;SDS011;35382;51.484;11.476;2023-03-14T04:28:49;6.15;;;1.55;;
49488;SDS011;35382;51.484;11.476;2023-03-14T04:30:30;7.22;;;2.33;;
49488;SDS011;35382;51.484;11.476;2023-03-14T04:32:13;6.82;;;1.83;;
49488;SDS011;35382;51.484;11.476;2023-03-14T04:33:54;6.80;;;2.00;;
49488;SDS011;35382;51.484;11.476;2023-03-14T04:35:44;6.03;;;1.58;;
49488;SDS011;35382;51.484;11.476;2023-03-14T04:37:27;6.07;;;1.52;;
49488;SDS011;35382;51.484;11.476;2023-03-14T04:39:08;6.03;;;1.55;;
49488;SDS011;35382;51.484;11.476;2023-03-14T04:40:53;4.75;;;1.50;;
49488;SDS011;35382;51.484;11.476;2023-03-14T04:42:36;4.72;;;1.55;;
49488;SDS011;35382;51.484;11.476;2023-03-14T04:44:17;5.05;;;1.40;;
49488;SDS011;35382;51.484;11.476;2023-03-14T04:45:58;8.35;;;2.42;;
49488;SDS011;35382;51.484;11.476;2023-03-14T04:47:39;5.03;;;1.55;;
49488;SDS011;35382;51.484;11.476;2023-03-14T04:49:21;7.25;;;1.63;;
49488;SDS011;35382;51.484;11.476;2023-03-14T04:51:02;7.25;;;1.85;;
49488;SDS011;35382;51.484;11.476;2023-03-14T04:52:46;5.25;;;1.55;;
49488;SDS011;35382;51.484;11.476;2023-03-14T04:54:27;5.30;;;1.95;;
49488;SDS011;35382;51.484;11.476;2023-03-14T04:56:11;6.90;;;1.73;;
49488;SDS011;35382;51.484;11.476;2023-03-14T04:57:55;8.55;;;1.65;;
49488;SDS011;35382;51.484;11.476;2023-03-14T04:59:37;5.82;;;1.60;;
49488;SDS011;35382;51.484;11.476;2023-03-14T05:01:38;5.10;;;1.45;;
49488;SDS011;35382;51.484;11.476;2023-03-14T05:03:38;3.65;;;1.50;;
49488;SDS011;35382;51.484;11.476;2023-03-14T05:05:33;6.85;;;1.73;;
49488;SDS011;35382;51.484;11.476;2023-03-14T05:07:33;7.35;;;1.60;;
49488;SDS011;35382;51.484;11.476;2023-03-14T05:09:32;4.60;;;1.50;;
49488;SDS011;35382;51.484;11.476;2023-03-14T05:11:29;8.35;;;2.25;;
49488;SDS011;35382;51.484;11.476;2023-03-14T05:13:37;9.07;;;1.77;;
49488;SDS011;35382;51.484;11.476;2023-03-14T05:15:51;6.93;;;1.60;;
49488;SDS011;35382;51.484;11.476;2023-03-14T05:17:42;6.47;;;1.88;;
49488;SDS011;35382;51.484;11.476;2023-03-14T05:19:44;9.40;;;3.22;;
49488;SDS011;35382;51.484;11.476;2023-03-14T05:21:37;3.85;;;1.58;;
49488;SDS011;35382;51.484;11.476;2023-03-14T05:23:38;4.72;;;1.70;;
49488;SDS011;35382;51.484;11.476;2023-03-14T05:25:29;7.05;;;1.77;;
49488;SDS011;35382;51.484;11.476;2023-03-14T05:27:29;4.70;;;2.08;;
49488;SDS011;35382;51.484;11.476;2023-03-14T05:29:35;6.50;;;1.60;;
49488;SDS011;35382;51.484;11.476;2023-03-14T05:31:39;5.18;;;1.23;;
49488;SDS011;35382;51.484;11.476;2023-03-14T05:33:38;5.93;;;1.30;;
49488;SDS011;35382;51.484;11.476;2023-03-14T05:35:47;4.13;;;1.27;;
49488;SDS011;35382;51.484;11.476;2023-03-14T05:37:47;9.88;;;1.30;;
49488;SDS011;35382;51.484;11.476;2023-03-14T05:39:43;4.15;;;1.20;;
49488;SDS011;35382;51.484;11.476;2023-03-14T05:41:56;4.32;;;1.42;;
49488;SDS011;35382;51.484;11.476;2023-03-14T05:43:51;5.40;;;1.08;;
49488;SDS011;35382;51.484;11.476;2023-03-14T05:45:51;3.80;;;1.02;;
49488;SDS011;35382;51.484;11.476;2023-03-14T05:47:40;3.80;;;0.85;;
49488;SDS011;35382;51.484;11.476;2023-03-14T05:49:32;4.35;;;1.00;;
49488;SDS011;35382;51.484;11.476;2023-03-14T05:51:27;2.97;;;1.00;;
49488;SDS011;35382;51.484;11.476;2023-03-14T05:53:32;5.82;;;1.20;;
49488;SDS011;35382;51.484;11.476;2023-03-14T05:55:35;4.07;;;1.30;;
49488;SDS011;35382;51.484;11.476;2023-03-14T05:57:39;5.25;;;1.08;;
49488;SDS011;35382;51.484;11.476;2023-03-14T05:59:58;3.40;;;1.10;;
49488;SDS011;35382;51.484;11.476;2023-03-14T06:01:59;5.05;;;1.13;;
49488;SDS011;35382;51.484;11.476;2023-03-14T06:03:43;4.15;;;1.23;;
49488;SDS011;35382;51.484;11.476;2023-03-14T06:05:24;6.10;;;1.13;;
49488;SDS011;35382;51.484;11.476;2023-03-14T06:07:11;3.85;;;1.55;;
49488;SDS011;35382;51.484;11.476;2023-03-14T06:08:52;4.30;;;1.40;;
49488;SDS011;35382;51.484;11.476;2023-03-14T06:10:34;4.65;;;1.40;;
49488;SDS011;35382;51.484;11.476;2023-03-14T06:12:18;2.58;;;1.20;;
49488;SDS011;35382;51.484;11.476;2023-03-14T06:14:00;4.35;;;1.27;;
49488;SDS011;35382;51.484;11.476;2023-03-14T06:15:41;3.90;;;1.30;;
49488;SDS011;35382;51.484;11.476;2023-03-14T06:17:22;5.10;;;1.00;;
49488;SDS011;35382;51.484;11.476;2023-03-14T06:19:09;2.93;;;1.10;;
49488;SDS011;35382;51.484;11.476;2023-03-14T06:20:55;5.85;;;1.92;;
49488;SDS011;35382;51.484;11.476;2023-03-14T06:22:39;3.15;;;1.08;;
49488;SDS011;35382;51.484;11.476;2023-03-14T06:24:21;5.35;;;1.15;;
49488;SDS011;35382;51.484;11.476;2023-03-14T06:26:04;4.20;;;1.35;;
49488;SDS011;35382;51.484;11.476;2023-03-14T06:27:45;4.80;;;1.35;;
49488;SDS011;35382;51.484;11.476;2023-03-14T06:29:26;4.15;;;1.13;;
49488;SDS011;35382;51.484;11.476;2023-03-14T06:31:07;3.47;;;1.10;;
49488;SDS011;35382;51.484;11.476;2023-03-14T06:32:56;5.10;;;0.95;;
49488;SDS011;35382;51.484;11.476;2023-03-14T06:34:37;4.57;;;1.50;;
49488;SDS011;35382;51.484;11.476;2023-03-14T06:36:18;6.28;;;1.50;;
49488;SDS011;35382;51.484;11.476;2023-03-14T06:38:01;3.45;;;1.20;;
49488;SDS011;35382;51.484;11.476;2023-03-14T06:39:42;8.13;;;2.00;;
49488;SDS011;35382;51.484;11.476;2023-03-14T06:41:33;4.13;;;1.25;;
49488;SDS011;35382;51.484;11.476;2023-03-14T06:43:14;6.55;;;1.30;;
49488;SDS011;35382;51.484;11.476;2023-03-14T06:44:57;4.07;;;1.40;;
49488;SDS011;35382;51.484;11.476;2023-03-14T06:46:40;5.32;;;1.35;;
49488;SDS011;35382;51.484;11.476;2023-03-14T06:48:22;3.92;;;1.48;;
49488;SDS011;35382;51.484;11.476;2023-03-14T06:50:08;2.78;;;1.10;;
49488;SDS011;35382;51.484;11.476;2023-03-14T06:51:50;3.88;;;1.15;;
49488;SDS011;35382;51.484;11.476;2023-03-14T06:53:31;4.72;;;1.30;;
49488;SDS011;35382;51.484;11.476;2023-03-14T06:55:15;7.93;;;1.95;;
49488;SDS011;35382;51.484;11.476;2023-03-14T06:56:56;6.28;;;2.30;;
49488;SDS011;35382;51.484;11.476;2023-03-14T06:58:37;3.35;;;1.38;;
49488;SDS011;35382;51.484;11.476;2023-03-14T07:00:20;5.60;;;1.17;;
49488;SDS011;35382;51.484;11.476;2023-03-14T07:02:01;6.57;;;1.50;;
49488;SDS011;35382;51.484;11.476;2023-03-14T07:03:42;4.05;;;1.42;;
49488;SDS011;35382;51.484;11.476;2023-03-14T07:05:23;5.40;;;1.40;;
49488;SDS011;35382;51.484;11.476;2023-03-14T07:07:05;4.60;;;1.20;;
49488;SDS011;35382;51.484;11.476;2023-03-14T07:08:48;3.63;;;1.38;;
49488;SDS011;35382;51.484;11.476;2023-03-14T07:10:30;6.78;;;1.52;;
49488;SDS011;35382;51.484;11.476;2023-03-14T07:12:11;5.45;;;1.38;;
49488;SDS011;35382;51.484;11.476;2023-03-14T07:13:53;4.68;;;1.60;;
49488;SDS011;35382;51.484;11.476;2023-03-14T07:15:37;6.10;;;1.70;;
49488;SDS011;35382;51.484;11.476;2023-03-14T07:17:22;4.97;;;1.38;;
49488;SDS011;35382;51.484;11.476;2023-03-14T07:19:03;4.32;;;1.75;;
49488;SDS011;35382;51.484;11.476;2023-03-14T07:20:45;4.40;;;1.30;;
49488;SDS011;35382;51.484;11.476;2023-03-14T07:22:28;5.75;;;2.25;;
49488;SDS011;35382;51.484;11.476;2023-03-14T07:24:09;4.20;;;1.20;;
49488;SDS011;35382;51.484;11.476;2023-03-14T07:25:51;8.50;;;1.52;;
49488;SDS011;35382;51.484;11.476;2023-03-14T07:27:35;4.93;;;1.38;;
49488;SDS011;35382;51.484;11.476;2023-03-14T07:29:16;3.92;;;1.40;;
49488;SDS011;35382;51.484;11.476;2023-03-14T07:30:57;3.45;;;1.23;;
49488;SDS011;35382;51.484;11.476;2023-03-14T07:32:42;4.05;;;1.80;;
49488;SDS011;35382;51.484;11.476;2023-03-14T07:34:24;3.97;;;1.10;;
49488;SDS011;35382;51.484;11.476;2023-03-14T07:36:05;4.28;;;1.20;;
49488;SDS011;35382;51.484;11.476;2023-03-14T07:37:46;4.35;;;1.02;;
49488;SDS011;35382;51.484;11.476;2023-03-14T07:39:28;4.60;;;1.58;;
49488;SDS011;35382;51.484;11.476;2023-03-14T07:41:20;3.28;;;1.10;;
49488;SDS011;35382;51.484;11.476;2023-03-14T07:43:21;4.82;;;1.10;;
49488;SDS011;35382;51.484;11.476;2023-03-14T07:45:03;5.32;;;1.33;;
49488;SDS011;35382;51.484;11.476;2023-03-14T07:46:44;3.80;;;1.05;;
49488;SDS011;35382;51.484;11.476;2023-03-14T07:48:25;4.70;;;1.30;;
49488;SDS011;35382;51.484;11.476;2023-03-14T07:50:07;4.50;;;1.60;;
49488;SDS011;35382;51.484;11.476;2023-03-14T07:51:49;5.68;;;1.83;;
49488;SDS011;35382;51.484;11.476;2023-03-14T07:53:30;3.78;;;1.10;;
49488;SDS011;35382;51.484;11.476;2023-03-14T07:55:11;3.95;;;1.10;;
49488;SDS011;35382;51.484;11.476;2023-03-14T07:56:54;5.38;;;1.42;;
49488;SDS011;35382;51.484;11.476;2023-03-14T07:58:35;5.53;;;1.40;;
49488;SDS011;35382;51.484;11.476;2023-03-14T08:00:16;4.47;;;1.30;;
49488;SDS011;35382;51.484;11.476;2023-03-14T08:01:57;2.50;;;0.77;;
49488;SDS011;35382;51.484;11.476;2023-03-14T08:03:37;3.05;;;1.13;;
49488;SDS011;35382;51.484;11.476;2023-03-14T08:05:19;1.42;;;0.77;;
49488;SDS011;35382;51.484;11.476;2023-03-14T08:06:59;2.72;;;1.10;;
49488;SDS011;35382;51.484;11.476;2023-03-14T08:08:40;3.60;;;1.08;;
49488;SDS011;35382;51.484;11.476;2023-03-14T08:10:21;2.65;;;1.10;;
49488;SDS011;35382;51.484;11.476;2023-03-14T08:12:02;4.35;;;1.55;;
49488;SDS011;35382;51.484;11.476;2023-03-14T08:13:43;3.08;;;1.00;;
49488;SDS011;35382;51.484;11.476;2023-03-14T08:15:30;3.42;;;0.98;;
49488;SDS011;35382;51.484;11.476;2023-03-14T08:17:11;4.15;;;1.02;;
49488;SDS011;35382;51.484;11.476;2023-03-14T08:18:52;4.55;;;1.20;;
49488;SDS011;35382;51.484;11.476;2023-03-14T08:20:33;3.28;;;0.90;;
49488;SDS011;35382;51.484;11.476;2023-03-14T08:22:14;4.45;;;1.80;;
49488;SDS011;35382;51.484;11.476;2023-03-14T08:23:55;4.18;;;0.80;;
49488;SDS011;35382;51.484;11.476;2023-03-14T08:25:37;5.05;;;0.85;;
49488;SDS011;35382;51.484;11.476;2023-03-14T08:27:18;3.03;;;0.70;;
49488;SDS011;35382;51.484;11.476;2023-03-14T08:28:59;2.40;;;1.10;;
49488;SDS011;35382;51.484;11.476;2023-03-14T08:30:40;1.80;;;0.77;;
49488;SDS011;35382;51.484;11.476;2023-03-14T08:32:21;3.83;;;0.90;;
49488;SDS011;35382;51.484;11.476;2023-03-14T08:34:04;2.33;;;0.70;;
49488;SDS011;35382;51.484;11.476;2023-03-14T08:35:47;5.22;;;0.88;;
49488;SDS011;35382;51.484;11.476;2023-03-14T08:37:28;2.53;;;0.80;;
49488;SDS011;35382;51.484;11.476;2023-03-14T08:39:08;3.20;;;0.77;;
49488;SDS011;35382;51.484;11.476;2023-03-14T08:40:54;3.35;;;0.80;;
49488;SDS011;35382;51.484;11.476;2023-03-14T08:42:36;3.03;;;0.93;;
49488;SDS011;35382;51.484;11.476;2023-03-14T08:44:18;2.75;;;0.80;;
49488;SDS011;35382;51.484;11.476;2023-03-14T08:46:00;2.60;;;0.77;;
49488;SDS011;35382;51.484;11.476;2023-03-14T08:47:42;2.58;;;0.68;;
49488;SDS011;35382;51.484;11.476;2023-03-14T08:49:24;3.22;;;1.00;;
49488;SDS011;35382;51.484;11.476;2023-03-14T08:51:08;2.50;;;1.00;;
49488;SDS011;35382;51.484;11.476;2023-03-14T08:52:51;2.10;;;0.63;;
49488;SDS011;35382;51.484;11.476;2023-03-14T08:54:32;3.25;;;1.65;;
49488;SDS011;35382;51.484;11.476;2023-03-14T08:56:13;1.98;;;0.68;;
49488;SDS011;35382;51.484;11.476;2023-03-14T08:57:54;1.88;;;0.73;;
49488;SDS011;35382;51.484;11.476;2023-03-14T08:59:35;1.48;;;0.60;;
49488;SDS011;35382;51.484;11.476;2023-03-14T09:01:16;3.17;;;0.95;;
49488;SDS011;35382;51.484;11.476;2023-03-14T09:02:57;1.08;;;0.60;;
49488;SDS011;35382;51.484;11.476;2023-03-14T09:04:38;2.05;;;0.60;;
49488;SDS011;35382;51.484;11.476;2023-03-14T09:06:19;2.00;;;0.70;;
49488;SDS011;35382;51.484;11.476;2023-03-14T09:08:00;2.05;;;0.73;;
49488;SDS011;35382;51.484;11.476;2023-03-14T09:09:41;2.92;;;0.88;;
49488;SDS011;35382;51.484;11.476;2023-03-14T09:11:22;1.23;;;0.50;;
49488;SDS011;35382;51.484;11.476;2023-03-14T09:13:03;2.67;;;0.73;;
49488;SDS011;35382;51.484;11.476;2023-03-14T09:14:44;1.17;;;0.52;;
49488;SDS011;35382;51.484;11.476;2023-03-14T09:16:25;2.58;;;0.95;;
49488;SDS011;35382;51.484;11.476;2023-03-14T09:18:06;2.95;;;0.50;;
49488;SDS011;35382;51.484;11.476;2023-03-14T09:19:47;4.10;;;0.85;;
49488;SDS011;35382;51.484;11.476;2023-03-14T09:21:28;2.38;;;0.60;;
49488;SDS011;35382;51.484;11.476;2023-03-14T09:23:08;1.63;;;0.60;;
49488;SDS011;35382;51.484;11.476;2023-03-14T09:24:49;1.58;;;0.60;;
49488;SDS011;35382;51.484;11.476;2023-03-14T09:26:30;0.77;;;0.52;;
49488;SDS011;35382;51.484;11.476;2023-03-14T09:28:12;2.50;;;0.70;;
49488;SDS011;35382;51.484;11.476;2023-03-14T09:29:53;2.55;;;0.80;;
49488;SDS011;35382;51.484;11.476;2023-03-14T09:31:34;4.85;;;0.77;;
49488;SDS011;35382;51.484;11.476;2023-03-14T09:33:16;2.03;;;0.50;;
49488;SDS011;35382;51.484;11.476;2023-03-14T09:34:57;2.15;;;0.70;;
49488;SDS011;35382;51.484;11.476;2023-03-14T09:36:38;0.95;;;0.60;;
49488;SDS011;35382;51.484;11.476;2023-03-14T09:38:20;2.85;;;0.60;;
49488;SDS011;35382;51.484;11.476;2023-03-14T09:40:01;1.55;;;0.40;;
49488;SDS011;35382;51.484;11.476;2023-03-14T09:41:49;2.83;;;0.87;;
49488;SDS011;35382;51.484;11.476;2023-03-14T09:43:32;2.05;;;0.63;;
49488;SDS011;35382;51.484;11.476;2023-03-14T09:45:25;1.33;;;0.75;;
49488;SDS011;35382;51.484;11.476;2023-03-14T09:47:10;3.60;;;0.80;;
49488;SDS011;35382;51.484;11.476;2023-03-14T09:48:53;0.90;;;0.50;;
49488;SDS011;35382;51.484;11.476;2023-03-14T09:50:37;1.60;;;0.63;;
49488;SDS011;35382;51.484;11.476;2023-03-14T09:52:27;1.25;;;0.50;;
49488;SDS011;35382;51.484;11.476;2023-03-14T09:56:04;0.73;;;0.50;;
49488;SDS011;35382;51.484;11.476;2023-03-14T09:57:58;1.13;;;0.50;;
49488;SDS011;35382;51.484;11.476;2023-03-14T09:59:41;1.17;;;0.53;;
49488;SDS011;35382;51.484;11.476;2023-03-14T10:01:29;0.60;;;0.35;;
49488;SDS011;35382;51.484;11.476;2023-03-14T10:04:53;1.05;;;0.40;;
49488;SDS011;35382;51.484;11.476;2023-03-14T10:06:34;3.03;;;0.50;;
49488;SDS011;35382;51.484;11.476;2023-03-14T10:08:15;1.40;;;0.52;;
49488;SDS011;35382;51.484;11.476;2023-03-14T10:09:57;3.42;;;0.60;;
49488;SDS011;35382;51.484;11.476;2023-03-14T10:11:39;1.35;;;0.50;;
49488;SDS011;35382;51.484;11.476;2023-03-14T10:13:21;1.23;;;0.40;;
49488;SDS011;35382;51.484;11.476;2023-03-14T10:15:11;2.90;;;0.50;;
49488;SDS011;35382;51.484;11.476;2023-03-14T10:17:04;1.08;;;0.57;;
49488;SDS011;35382;51.484;11.476;2023-03-14T10:18:47;1.17;;;0.40;;
49488;SDS011;35382;51.484;11.476;2023-03-14T10:20:29;1.20;;;0.30;;
49488;SDS011;35382;51.484;11.476;2023-03-14T10:22:15;4.28;;;0.50;;
49488;SDS011;35382;51.484;11.476;2023-03-14T10:24:07;2.60;;;0.50;;
49488;SDS011;35382;51.484;11.476;2023-03-14T10:26:02;1.80;;;0.40;;
49488;SDS011;35382;51.484;11.476;2023-03-14T10:27:46;2.40;;;0.60;;
49488;SDS011;35382;51.484;11.476;2023-03-14T10:29:28;1.23;;;0.50;;
49488;SDS011;35382;51.484;11.476;2023-03-14T10:31:14;0.77;;;0.40;;
49488;SDS011;35382;51.484;11.476;2023-03-14T10:32:55;2.25;;;0.60;;
49488;SDS011;35382;51.484;11.476;2023-03-14T10:34:37;0.93;;;0.40;;